createdAt,value
2023-02-18T00:01:44.549Z,7.00
2023-02-18T00:04:12.825Z,6.93
2023-02-18T00:06:40.935Z,7.02
2023-02-18T00:09:09.200Z,7.06
2023-02-18T00:11:41.205Z,7.03
2023-02-18T00:14:13.092Z,7.02
2023-02-18T00:16:44.703Z,6.99
2023-02-18T00:19:18.010Z,7.05
2023-02-18T00:21:48.905Z,6.99
2023-02-18T00:24:18.679Z,7.02
2023-02-18T00:26:52.074Z,6.97
2023-02-18T00:29:21.994Z,7.02
2023-02-18T00:31:50.570Z,7.01
2023-02-18T00:34:18.703Z,7.03
2023-02-18T00:36:47.037Z,7.00
2023-02-18T00:39:17.804Z,7.02
2023-02-18T00:41:45.672Z,7.09
2023-02-18T00:44:15.069Z,7.15
2023-02-18T00:46:54.817Z,7.02
2023-02-18T00:49:24.283Z,6.89
2023-02-18T00:51:52.422Z,6.79
2023-02-18T00:54:24.654Z,6.84
2023-02-18T00:56:52.519Z,6.83
2023-02-18T00:59:21.985Z,6.85
2023-02-18T01:01:49.969Z,6.85
2023-02-18T01:04:18.048Z,6.95
2023-02-18T01:06:46.133Z,6.93
2023-02-18T01:09:14.113Z,6.82
2023-02-18T01:11:42.688Z,6.56
2023-02-18T01:14:10.742Z,6.76
2023-02-18T01:16:40.108Z,6.86
2023-02-18T01:19:08.038Z,6.94
2023-02-18T01:21:37.944Z,7.03
2023-02-18T01:24:06.952Z,7.08
2023-02-18T01:26:35.180Z,7.06
2023-02-18T01:29:03.219Z,7.02
2023-02-18T01:31:31.260Z,7.20
2023-02-18T01:34:03.612Z,7.17
2023-02-18T01:36:31.572Z,7.24
2023-02-18T01:39:00.484Z,7.27
2023-02-18T01:41:35.314Z,7.22
2023-02-18T01:44:24.072Z,7.29
2023-02-18T01:46:53.609Z,7.28
2023-02-18T01:49:31.842Z,7.28
2023-02-18T01:52:16.088Z,7.31
2023-02-18T01:54:49.130Z,7.12
2023-02-18T01:57:21.790Z,7.33
2023-02-18T01:59:54.086Z,7.35
2023-02-18T02:02:24.236Z,7.29
2023-02-18T02:04:53.996Z,7.13
2023-02-18T02:07:24.657Z,7.31
2023-02-18T02:09:56.466Z,7.30
2023-02-18T02:12:40.901Z,7.30
2023-02-18T02:15:25.008Z,7.34
2023-02-18T02:18:09.239Z,7.32
2023-02-18T02:21:10.551Z,7.41
2023-02-18T02:23:58.924Z,7.38
2023-02-18T02:26:54.897Z,7.35
2023-02-18T02:29:54.162Z,7.42
2023-02-18T02:32:54.329Z,7.41
2023-02-18T02:35:26.132Z,7.53
2023-02-18T02:38:01.517Z,7.58
2023-02-18T02:40:38.066Z,7.62
2023-02-18T02:43:14.706Z,7.56
2023-02-18T02:45:55.855Z,7.63
2023-02-18T02:48:33.181Z,7.74
2023-02-18T02:51:09.440Z,7.74
2023-02-18T02:53:41.897Z,7.74
2023-02-18T02:56:17.138Z,7.80
2023-02-18T02:58:47.508Z,7.81
2023-02-18T03:01:42.836Z,7.79
2023-02-18T03:04:36.218Z,7.82
2023-02-18T03:07:21.302Z,7.83
2023-02-18T03:10:12.130Z,7.93
2023-02-18T03:12:50.255Z,7.97
2023-02-18T03:15:25.387Z,7.96
2023-02-18T03:17:58.409Z,8.01
2023-02-18T03:20:29.643Z,8.02
2023-02-18T03:23:01.234Z,8.03
2023-02-18T03:25:30.495Z,8.01
2023-02-18T03:28:01.967Z,7.99
2023-02-18T03:30:39.899Z,7.90
2023-02-18T03:33:13.065Z,7.99
2023-02-18T03:35:44.406Z,7.97
2023-02-18T03:38:25.009Z,8.05
2023-02-18T03:40:53.504Z,8.02
2023-02-18T03:43:21.550Z,8.12
2023-02-18T03:45:49.539Z,8.15
2023-02-18T03:48:18.499Z,8.20
2023-02-18T03:50:47.071Z,8.20
2023-02-18T03:53:15.889Z,8.21
2023-02-18T03:55:45.587Z,8.19
2023-02-18T03:58:13.883Z,8.24
2023-02-18T04:00:41.998Z,8.33
2023-02-18T04:03:09.998Z,8.38
2023-02-18T04:05:37.996Z,8.46
2023-02-18T04:08:06.168Z,8.43
2023-02-18T04:10:34.203Z,8.42
2023-02-18T04:13:03.647Z,8.42
2023-02-18T04:15:31.616Z,8.43
2023-02-18T04:17:59.573Z,8.46
2023-02-18T04:20:27.504Z,8.52
2023-02-18T04:22:55.812Z,8.47
2023-02-18T04:25:23.966Z,8.56
2023-02-18T04:27:52.865Z,8.58
2023-02-18T04:30:22.474Z,8.44
2023-02-18T04:32:50.735Z,8.56
2023-02-18T04:35:18.820Z,8.56
2023-02-18T04:37:47.999Z,8.55
2023-02-18T04:40:16.326Z,8.46
2023-02-18T04:42:44.513Z,8.40
2023-02-18T04:45:14.745Z,8.41
2023-02-18T04:47:44.201Z,8.41
2023-02-18T04:50:13.760Z,8.44
2023-02-18T04:52:42.495Z,8.37
2023-02-18T04:55:17.548Z,8.40
2023-02-18T04:57:53.367Z,8.40
2023-02-18T05:00:23.261Z,8.43
2023-02-18T05:02:52.675Z,8.42
2023-02-18T05:05:20.687Z,8.39
2023-02-18T05:07:50.709Z,8.41
2023-02-18T05:10:19.635Z,8.50
2023-02-18T05:12:47.719Z,8.45
2023-02-18T05:15:15.758Z,8.44
2023-02-18T05:17:43.673Z,8.44
2023-02-18T05:20:13.970Z,8.42
2023-02-18T05:22:43.075Z,8.40
2023-02-18T05:25:11.580Z,8.43
2023-02-18T05:27:39.775Z,8.46
2023-02-18T05:30:09.068Z,8.48
2023-02-18T05:32:36.921Z,8.47
2023-02-18T05:35:05.107Z,8.44
2023-02-18T05:37:34.421Z,8.48
2023-02-18T05:40:04.137Z,8.53
2023-02-18T05:42:34.107Z,8.50
2023-02-18T05:45:03.104Z,8.53
2023-02-18T05:47:52.568Z,8.60
2023-02-18T05:50:20.664Z,8.59
2023-02-18T05:52:50.968Z,8.61
2023-02-18T05:55:39.176Z,8.64
2023-02-18T05:58:07.605Z,8.66
2023-02-18T06:00:35.508Z,8.68
2023-02-18T06:03:03.508Z,8.71
2023-02-18T06:05:32.535Z,8.78
2023-02-18T06:08:01.902Z,8.79
2023-02-18T06:10:31.930Z,8.77
2023-02-18T06:13:02.559Z,8.85
2023-02-18T06:15:30.672Z,8.81
2023-02-18T06:18:07.834Z,8.96
2023-02-18T06:20:35.927Z,9.04
2023-02-18T06:23:08.049Z,9.00
2023-02-18T06:25:36.765Z,9.16
2023-02-18T06:28:04.841Z,9.22
2023-02-18T06:30:33.871Z,9.16
2023-02-18T06:33:04.359Z,9.25
2023-02-18T06:35:32.268Z,9.23
2023-02-18T06:38:00.444Z,9.32
2023-02-18T06:40:30.797Z,9.33
2023-02-18T06:42:58.888Z,9.38
2023-02-18T06:45:26.849Z,9.35
2023-02-18T06:47:54.832Z,9.32
2023-02-18T06:50:23.966Z,9.32
2023-02-18T06:52:54.384Z,9.34
2023-02-18T06:55:23.359Z,9.23
2023-02-18T06:57:54.088Z,9.26
2023-02-18T07:00:23.492Z,9.34
2023-02-18T07:02:52.521Z,9.36
2023-02-18T07:05:20.615Z,9.40
2023-02-18T07:07:48.622Z,9.36
2023-02-18T07:10:21.191Z,9.40
2023-02-18T07:12:53.670Z,9.45
2023-02-18T07:15:24.473Z,9.50
2023-02-18T07:17:52.374Z,9.49
2023-02-18T07:20:22.477Z,9.45
2023-02-18T07:22:53.896Z,9.50
2023-02-18T07:25:24.387Z,9.46
2023-02-18T07:27:55.940Z,9.52
2023-02-18T07:30:25.339Z,9.56
2023-02-18T07:32:53.308Z,9.58
2023-02-18T07:35:22.823Z,9.50
2023-02-18T07:37:52.734Z,9.55
2023-02-18T07:40:23.826Z,9.57
2023-02-18T07:43:01.045Z,9.50
2023-02-18T07:45:30.590Z,9.53
2023-02-18T07:47:58.823Z,9.52
2023-02-18T07:50:30.763Z,9.47
2023-02-18T07:52:59.986Z,9.30
2023-02-18T07:55:48.771Z,9.50
2023-02-18T07:58:16.883Z,9.53
2023-02-18T08:00:49.512Z,9.47
2023-02-18T08:03:18.693Z,9.42
2023-02-18T08:05:47.078Z,9.39
2023-02-18T08:08:23.112Z,9.34
2023-02-18T08:10:55.532Z,9.28
2023-02-18T08:13:25.148Z,9.31
2023-02-18T08:16:08.458Z,9.37
2023-02-18T08:18:43.827Z,9.40
2023-02-18T08:21:17.354Z,9.40
2023-02-18T08:23:46.261Z,9.37
2023-02-18T08:26:18.194Z,9.36
2023-02-18T08:28:47.731Z,9.37
2023-02-18T08:31:25.336Z,9.39
2023-02-18T08:33:57.857Z,9.40
2023-02-18T08:36:27.164Z,9.35
2023-02-18T08:38:58.995Z,9.39
2023-02-18T08:41:28.484Z,9.35
2023-02-18T08:43:57.770Z,9.33
2023-02-18T08:46:35.237Z,9.37
2023-02-18T08:49:04.097Z,9.23
2023-02-18T08:51:33.085Z,9.33
2023-02-18T08:54:04.868Z,9.39
2023-02-18T08:56:33.623Z,9.23
2023-02-18T08:59:19.282Z,9.33
2023-02-18T09:01:49.998Z,9.18
2023-02-18T09:04:30.834Z,9.22
2023-02-18T09:07:15.714Z,9.42
2023-02-18T09:09:46.233Z,9.30
2023-02-18T09:12:17.908Z,9.28
2023-02-18T09:14:50.560Z,9.28
2023-02-18T09:17:20.867Z,9.12
2023-02-18T09:19:57.661Z,9.24
2023-02-18T09:22:32.722Z,9.08
2023-02-18T09:25:01.878Z,9.18
2023-02-18T09:27:32.232Z,9.16
2023-02-18T09:30:01.646Z,9.20
2023-02-18T09:32:35.438Z,9.19
2023-02-18T09:35:04.118Z,9.24
2023-02-18T09:37:32.363Z,9.23
2023-02-18T09:40:01.304Z,9.11
2023-02-18T09:42:34.016Z,9.17
2023-02-18T09:45:09.063Z,9.09
2023-02-18T09:47:41.246Z,9.14
2023-02-18T09:50:16.244Z,9.14
2023-02-18T09:52:47.519Z,9.18
2023-02-18T09:55:25.769Z,9.12
2023-02-18T09:57:57.609Z,9.09
2023-02-18T10:00:46.158Z,9.02
2023-02-18T10:03:38.982Z,9.11
2023-02-18T10:06:13.366Z,9.06
2023-02-18T10:08:47.462Z,9.15
2023-02-18T10:11:24.727Z,9.29
2023-02-18T10:13:55.647Z,9.22
2023-02-18T10:16:27.696Z,9.31
2023-02-18T10:19:12.900Z,9.28
2023-02-18T10:21:42.252Z,9.30
2023-02-18T10:24:21.231Z,9.35
2023-02-18T10:27:00.046Z,9.44
2023-02-18T10:29:33.582Z,9.47
2023-02-18T10:32:20.468Z,9.41
2023-02-18T10:35:05.546Z,9.37
2023-02-18T10:37:54.286Z,9.61
2023-02-18T10:43:45.630Z,9.51
2023-02-18T10:46:25.123Z,9.75
2023-02-18T10:49:14.651Z,9.83
2023-02-18T10:52:10.625Z,9.88
2023-02-18T10:55:00.966Z,9.98
2023-02-18T10:57:37.851Z,9.96
2023-02-18T11:00:24.784Z,10.02
2023-02-18T11:03:23.582Z,10.14
2023-02-18T11:06:00.450Z,10.22
2023-02-18T11:08:44.470Z,10.23
2023-02-18T11:11:30.283Z,10.33
2023-02-18T11:14:15.008Z,10.31
2023-02-18T11:16:53.915Z,10.34
2023-02-18T11:19:46.588Z,10.49
2023-02-18T11:22:24.954Z,10.70
2023-02-18T11:25:01.254Z,10.62
2023-02-18T11:27:44.655Z,10.63
2023-02-18T11:30:24.205Z,10.80
2023-02-18T11:33:25.733Z,10.87
2023-02-18T11:36:02.917Z,10.73
2023-02-18T11:38:50.169Z,10.62
2023-02-18T11:44:55.640Z,10.82
2023-02-18T11:47:30.238Z,10.78
2023-02-18T11:50:08.074Z,10.90
2023-02-18T11:52:38.923Z,10.73
2023-02-18T11:55:15.729Z,10.87
2023-02-18T11:57:53.949Z,10.88
2023-02-18T12:00:39.430Z,10.93
2023-02-18T12:03:17.614Z,10.95
2023-02-18T12:05:48.433Z,10.98
2023-02-18T12:08:28.407Z,10.88
2023-02-18T12:11:07.080Z,10.87
2023-02-18T12:13:46.416Z,10.91
2023-02-18T12:16:30.185Z,10.91
2023-02-18T12:19:29.864Z,10.98
2023-02-18T12:22:07.975Z,11.02
2023-02-18T12:24:50.628Z,11.07
2023-02-18T12:27:31.630Z,10.97
2023-02-18T12:30:30.800Z,11.06
2023-02-18T12:33:09.565Z,11.27
2023-02-18T12:35:52.764Z,11.40
2023-02-18T12:38:53.216Z,11.46
2023-02-18T12:41:47.358Z,11.43
2023-02-18T12:44:32.961Z,11.41
2023-02-18T12:47:45.225Z,11.43
2023-02-18T12:50:39.673Z,11.75
2023-02-18T12:56:55.466Z,11.65
2023-02-18T12:59:47.231Z,11.71
2023-02-18T13:02:35.637Z,11.52
2023-02-18T13:05:15.194Z,11.61
2023-02-18T13:07:59.042Z,11.74
2023-02-18T13:10:56.033Z,11.79
2023-02-18T13:13:37.859Z,11.63
2023-02-18T13:16:16.162Z,11.79
2023-02-18T13:19:02.884Z,11.85
2023-02-18T13:21:52.674Z,11.86
2023-02-18T13:24:37.494Z,11.71
2023-02-18T13:27:28.580Z,11.54
2023-02-18T13:30:10.660Z,11.61
2023-02-18T13:32:52.905Z,11.49
2023-02-18T13:35:27.956Z,11.64
2023-02-18T13:38:25.419Z,11.51
2023-02-18T13:41:02.215Z,11.69
2023-02-18T13:43:37.093Z,11.58
2023-02-18T13:46:11.516Z,11.66
2023-02-18T13:48:48.034Z,12.24
2023-02-18T13:51:31.640Z,11.83
2023-02-18T13:54:09.818Z,11.98
2023-02-18T13:56:45.658Z,12.05
2023-02-18T13:59:22.951Z,11.92
2023-02-18T14:01:52.839Z,11.64
2023-02-18T14:04:54.426Z,11.56
2023-02-18T14:07:40.455Z,11.42
2023-02-18T14:10:36.550Z,11.48
2023-02-18T14:13:57.251Z,11.37
2023-02-18T14:17:10.989Z,11.57
2023-02-18T14:19:57.831Z,11.50
2023-02-18T14:22:50.904Z,11.45
2023-02-18T14:28:53.041Z,11.65
2023-02-18T14:31:51.992Z,11.69
2023-02-18T14:35:01.984Z,11.58
2023-02-18T14:38:03.825Z,11.49
2023-02-18T14:40:59.983Z,11.42
2023-02-18T14:43:41.406Z,11.46
2023-02-18T14:46:23.028Z,11.47
2023-02-18T14:49:07.931Z,11.36
2023-02-18T14:51:44.594Z,11.27
2023-02-18T14:54:18.625Z,11.24
2023-02-18T14:56:59.796Z,11.26
2023-02-18T14:59:34.598Z,11.10
2023-02-18T15:02:03.950Z,11.10
2023-02-18T15:04:34.670Z,11.06
2023-02-18T15:07:08.364Z,11.04
2023-02-18T15:09:37.321Z,10.94
2023-02-18T15:12:10.044Z,10.91
2023-02-18T15:14:47.582Z,10.90
2023-02-18T15:17:19.638Z,10.92
2023-02-18T15:19:53.659Z,10.86
2023-02-18T15:22:24.032Z,10.93
2023-02-18T15:24:57.453Z,10.87
2023-02-18T15:27:32.605Z,10.78
2023-02-18T15:30:18.922Z,10.75
2023-02-18T15:32:54.687Z,10.64
2023-02-18T15:35:25.362Z,10.51
2023-02-18T15:37:58.198Z,10.65
2023-02-18T15:40:32.781Z,10.68
2023-02-18T15:43:06.919Z,10.50
2023-02-18T15:45:41.621Z,10.53
2023-02-18T15:48:23.881Z,10.54
2023-02-18T15:51:02.741Z,10.46
2023-02-18T15:53:41.701Z,10.48
2023-02-18T15:56:26.734Z,10.40
2023-02-18T15:59:21.581Z,10.41
2023-02-18T16:01:53.988Z,10.42
2023-02-18T16:04:27.088Z,10.38
2023-02-18T16:06:56.603Z,10.37
2023-02-18T16:09:28.498Z,10.27
2023-02-18T16:12:15.963Z,10.29
2023-02-18T16:14:51.650Z,10.14
2023-02-18T16:17:47.323Z,10.14
2023-02-18T16:20:27.453Z,10.20
2023-02-18T16:22:58.941Z,10.06
2023-02-18T16:25:47.097Z,9.98
2023-02-18T16:28:19.773Z,9.87
2023-02-18T16:30:56.541Z,9.90
2023-02-18T16:33:26.053Z,9.88
2023-02-18T16:36:10.606Z,9.81
2023-02-18T16:38:40.409Z,9.72
2023-02-18T16:41:13.736Z,9.71
2023-02-18T16:43:46.021Z,9.71
2023-02-18T16:46:22.750Z,9.68
2023-02-18T16:48:55.833Z,9.53
2023-02-18T16:51:28.859Z,9.49
2023-02-18T16:53:58.069Z,9.63
2023-02-18T16:56:30.221Z,9.48
2023-02-18T16:58:59.435Z,9.65
2023-02-18T17:04:32.284Z,9.55
2023-02-18T17:07:13.285Z,9.62
2023-02-18T17:09:46.182Z,9.61
2023-02-18T17:12:18.295Z,9.60
2023-02-18T17:14:49.661Z,9.59
2023-02-18T17:17:34.167Z,9.60
2023-02-18T17:20:03.237Z,9.55
2023-02-18T17:22:38.505Z,9.48
2023-02-18T17:25:15.475Z,9.43
2023-02-18T17:27:48.232Z,9.48
2023-02-18T17:30:29.018Z,9.43
2023-02-18T17:33:03.738Z,9.47
2023-02-18T17:36:01.567Z,9.43
2023-02-18T17:38:34.506Z,9.40
2023-02-18T17:41:20.281Z,9.40
2023-02-18T17:43:49.961Z,9.45
2023-02-18T17:46:20.855Z,9.25
2023-02-18T17:48:54.963Z,9.33
2023-02-18T17:51:30.602Z,9.27
2023-02-18T17:53:59.341Z,9.16
2023-02-18T17:56:28.152Z,9.19
2023-02-18T17:59:06.269Z,9.27
2023-02-18T18:01:43.472Z,9.16
2023-02-18T18:04:19.475Z,9.21
2023-02-18T18:06:50.442Z,9.23
2023-02-18T18:09:32.874Z,9.23
2023-02-18T18:12:09.903Z,9.16
2023-02-18T18:14:40.675Z,9.30
2023-02-18T18:17:26.633Z,9.32
2023-02-18T18:20:24.559Z,9.32
2023-02-18T18:23:22.404Z,9.38
2023-02-18T18:25:56.615Z,9.36
2023-02-18T18:28:27.720Z,9.34
2023-02-18T18:31:02.395Z,9.34
2023-02-18T18:33:35.275Z,9.32
2023-02-18T18:36:04.170Z,9.28
2023-02-18T18:38:42.496Z,9.31
2023-02-18T18:41:18.438Z,9.15
2023-02-18T18:43:54.017Z,9.06
2023-02-18T18:46:31.555Z,8.89
2023-02-18T18:49:00.886Z,8.97
2023-02-18T18:51:31.614Z,8.96
2023-02-18T18:54:02.315Z,8.94
2023-02-18T18:56:31.038Z,8.81
2023-02-18T18:59:02.155Z,8.84
2023-02-18T19:01:33.491Z,8.86
2023-02-18T19:04:02.988Z,8.84
2023-02-18T19:06:37.261Z,8.81
2023-02-18T19:09:11.806Z,8.79
2023-02-18T19:11:43.060Z,8.93
2023-02-18T19:14:16.576Z,8.87
2023-02-18T19:16:47.766Z,8.97
2023-02-18T19:19:30.784Z,8.93
2023-02-18T19:22:00.730Z,8.84
2023-02-18T19:24:47.202Z,8.84
2023-02-18T19:27:17.417Z,8.80
2023-02-18T19:29:53.149Z,8.70
2023-02-18T19:32:23.313Z,8.47
2023-02-18T19:34:55.837Z,8.32
2023-02-18T19:37:35.377Z,8.36
2023-02-18T19:40:13.311Z,8.31
2023-02-18T19:42:41.879Z,8.26
2023-02-18T19:45:13.889Z,8.16
2023-02-18T19:47:43.268Z,8.30
2023-02-18T19:50:20.379Z,8.36
2023-02-18T19:53:01.023Z,8.38
2023-02-18T19:56:09.368Z,8.40
2023-02-18T19:58:53.388Z,8.47
2023-02-18T20:04:18.592Z,8.54
2023-02-18T20:06:51.443Z,8.35
2023-02-18T20:09:20.902Z,8.36
2023-02-18T20:12:12.582Z,8.47
2023-02-18T20:14:49.934Z,8.53
2023-02-18T20:20:14.318Z,8.61
2023-02-18T20:22:48.748Z,8.61
2023-02-18T20:25:21.806Z,8.58
2023-02-18T20:30:38.514Z,8.52
2023-02-18T20:33:23.402Z,8.40
2023-02-18T20:39:07.575Z,8.54
2023-02-18T20:41:44.571Z,8.47
2023-02-18T20:44:42.964Z,8.60
2023-02-18T20:47:13.800Z,8.57
2023-02-18T20:49:46.955Z,8.65
2023-02-18T20:52:16.027Z,8.84
2023-02-18T20:54:45.175Z,8.77
2023-02-18T20:57:18.588Z,8.88
2023-02-18T20:59:51.951Z,8.82
2023-02-18T21:02:22.873Z,8.85
2023-02-18T21:04:51.289Z,8.79
2023-02-18T21:07:23.448Z,8.83
2023-02-18T21:09:52.072Z,8.66
2023-02-18T21:15:29.530Z,8.69
2023-02-18T21:18:02.576Z,8.80
2023-02-18T21:20:53.022Z,8.76
2023-02-18T21:23:55.939Z,8.76
2023-02-18T21:29:41.506Z,8.61
2023-02-18T21:35:08.299Z,8.75
2023-02-18T21:37:44.558Z,8.74
2023-02-18T21:40:21.023Z,8.81
2023-02-18T21:43:04.552Z,8.76
2023-02-18T21:52:02.479Z,8.76
2023-02-18T22:08:37.115Z,8.80
2023-02-18T22:11:46.247Z,8.93
2023-02-18T22:14:24.077Z,9.03
2023-02-18T22:37:49.651Z,9.04
2023-02-18T22:40:42.774Z,9.05
2023-02-18T22:47:00.902Z,8.85
2023-02-18T22:49:49.226Z,9.03
2023-02-18T22:52:40.939Z,8.92
2023-02-18T22:55:16.662Z,8.87
2023-02-18T22:58:05.201Z,8.88
2023-02-18T23:00:50.868Z,8.81
2023-02-18T23:10:30.564Z,8.85
2023-02-18T23:13:27.770Z,8.84
2023-02-18T23:16:06.639Z,8.73
2023-02-18T23:18:40.100Z,8.81
2023-02-18T23:21:25.427Z,8.79
2023-02-18T23:27:09.801Z,8.71
2023-02-18T23:36:01.534Z,8.64
2023-02-18T23:41:22.795Z,8.62
2023-02-18T23:44:06.000Z,8.56
2023-02-18T23:46:37.413Z,8.73
2023-02-18T23:49:20.074Z,8.61
2023-02-18T23:51:56.158Z,8.65
2023-02-18T23:57:30.453Z,8.73
